createdAt,value
2023-05-18T03:46:56.255Z,1.60
2023-05-18T03:49:23.089Z,1.50
2023-05-18T03:51:51.238Z,1.60
2023-05-18T03:54:18.008Z,1.80
2023-05-18T03:56:44.798Z,2.10
2023-05-18T03:59:11.549Z,2.60
2023-05-18T04:01:42.166Z,3.30
2023-05-18T04:04:09.323Z,3.80
2023-05-18T04:06:36.370Z,4.30
2023-05-18T04:09:04.835Z,4.50
2023-05-18T04:11:31.746Z,4.60
2023-05-18T04:14:00.855Z,4.80
2023-05-18T04:16:28.475Z,5.00
2023-05-18T04:18:55.289Z,5.70
2023-05-18T04:21:23.165Z,6.30
2023-05-18T04:23:50.111Z,7.00
2023-05-18T04:26:19.970Z,7.80
2023-05-18T04:28:50.082Z,8.70
2023-05-18T04:31:18.131Z,9.30
2023-05-18T04:33:46.734Z,9.60
2023-05-18T04:36:13.611Z,9.50
2023-05-18T04:38:40.404Z,9.40
2023-05-18T04:41:09.084Z,9.60
2023-05-18T04:43:36.729Z,10.40
2023-05-18T04:46:03.945Z,11.30
2023-05-18T04:48:32.598Z,12.00
2023-05-18T04:51:04.716Z,12.70
2023-05-18T04:53:33.420Z,13.20
2023-05-18T04:56:01.160Z,13.40
2023-05-18T04:58:30.423Z,13.00
2023-05-18T05:00:57.445Z,12.50
2023-05-18T05:03:24.426Z,11.90
2023-05-18T05:05:51.354Z,11.50
2023-05-18T05:08:18.098Z,11.30
2023-05-18T05:10:45.023Z,11.70
2023-05-18T05:13:11.777Z,12.10
2023-05-18T05:15:38.687Z,12.30
2023-05-18T05:18:05.646Z,12.30
2023-05-18T05:20:32.553Z,12.30
2023-05-18T05:23:02.559Z,12.10
2023-05-18T05:25:30.056Z,11.90
2023-05-18T05:27:56.994Z,11.60
2023-05-18T05:30:24.238Z,11.10
2023-05-18T05:32:51.072Z,10.70
2023-05-18T05:35:18.010Z,10.50
2023-05-18T05:37:46.189Z,10.50
2023-05-18T05:40:13.262Z,10.30
2023-05-18T05:42:44.259Z,10.40
2023-05-18T05:45:12.099Z,10.70
2023-05-18T05:47:50.734Z,10.90
2023-05-18T05:50:19.383Z,11.20
2023-05-18T05:52:47.940Z,11.40
2023-05-18T05:55:15.809Z,11.70
2023-05-18T05:57:42.944Z,11.90
2023-05-18T06:00:13.616Z,12.00
2023-05-18T06:02:53.018Z,12.90
2023-05-18T06:05:26.554Z,12.90
2023-05-18T06:07:55.395Z,13.00
2023-05-18T06:10:22.219Z,13.20
2023-05-18T06:12:49.369Z,13.30
2023-05-18T06:15:16.224Z,12.90
2023-05-18T06:17:44.149Z,12.70
2023-05-18T06:20:12.687Z,12.80
2023-05-18T06:22:40.215Z,12.90
2023-05-18T06:25:30.032Z,13.10
2023-05-18T06:28:13.265Z,13.20
2023-05-18T06:30:47.042Z,13.50
2023-05-18T06:33:21.284Z,14.00
2023-05-18T06:35:54.702Z,14.40
2023-05-18T06:38:22.228Z,14.70
2023-05-18T06:40:49.941Z,15.00
2023-05-18T06:43:16.752Z,15.40
2023-05-18T06:45:52.098Z,15.40
2023-05-18T06:48:29.142Z,15.20
2023-05-18T06:50:56.175Z,15.20
2023-05-18T06:53:23.401Z,14.90
2023-05-18T06:55:50.362Z,14.40
2023-05-18T06:58:17.168Z,14.30
2023-05-18T07:00:46.143Z,14.20
2023-05-18T07:03:12.981Z,14.40
2023-05-18T07:05:39.928Z,14.40
2023-05-18T07:08:07.231Z,14.60
2023-05-18T07:10:35.682Z,14.90
2023-05-18T07:13:02.674Z,15.40
2023-05-18T07:15:29.851Z,15.30
2023-05-18T07:17:57.064Z,14.90
2023-05-18T07:20:26.183Z,14.80
2023-05-18T07:22:57.556Z,14.60
2023-05-18T07:25:24.880Z,14.90
2023-05-18T07:27:53.047Z,15.80
2023-05-18T07:30:19.958Z,15.60
2023-05-18T07:32:46.844Z,15.80
2023-05-18T07:35:14.135Z,15.70
2023-05-18T07:37:40.931Z,15.80
2023-05-18T07:40:09.825Z,15.70
2023-05-18T07:42:38.057Z,15.50
2023-05-18T07:45:05.310Z,16.10
2023-05-18T07:47:32.117Z,16.10
2023-05-18T07:49:58.903Z,16.00
2023-05-18T07:52:25.696Z,16.60
2023-05-18T07:54:54.980Z,16.70
2023-05-18T07:57:21.974Z,16.30
2023-05-18T07:59:48.706Z,16.00
2023-05-18T08:02:17.159Z,16.80
2023-05-18T08:04:43.949Z,17.30
2023-05-18T08:07:10.693Z,17.20
2023-05-18T08:09:37.568Z,16.50
2023-05-18T08:12:05.101Z,16.10
2023-05-18T08:14:34.939Z,16.20
2023-05-18T08:17:03.917Z,17.10
2023-05-18T08:19:30.730Z,17.60
2023-05-18T08:21:57.653Z,18.60
2023-05-18T08:24:24.576Z,17.80
2023-05-18T08:26:52.514Z,17.40
2023-05-18T08:29:19.413Z,17.30
2023-05-18T08:31:49.326Z,17.70
2023-05-18T08:34:16.731Z,18.20
2023-05-18T08:36:45.936Z,17.90
2023-05-18T08:39:13.207Z,18.40
2023-05-18T08:41:55.850Z,18.30
2023-05-18T08:44:29.475Z,18.20
2023-05-18T08:46:59.343Z,17.70
2023-05-18T08:49:27.680Z,17.50
2023-05-18T08:52:00.578Z,17.40
2023-05-18T08:54:30.877Z,17.30
2023-05-18T08:56:59.280Z,18.40
2023-05-18T08:59:30.561Z,20.30
2023-05-18T09:01:58.317Z,21.10
2023-05-18T09:04:27.156Z,19.90
2023-05-18T09:06:54.914Z,18.80
2023-05-18T09:09:22.508Z,18.00
2023-05-18T09:11:50.811Z,18.00
2023-05-18T09:14:17.808Z,18.10
2023-05-18T09:16:48.739Z,18.40
2023-05-18T09:19:16.473Z,19.10
2023-05-18T09:21:48.599Z,18.70
2023-05-18T09:24:15.548Z,18.50
2023-05-18T09:26:42.472Z,18.30
2023-05-18T09:29:17.508Z,18.20
2023-05-18T09:31:48.023Z,18.20
2023-05-18T09:34:15.690Z,18.40
2023-05-18T09:36:46.704Z,18.80
2023-05-18T09:39:13.667Z,19.90
2023-05-18T09:41:41.612Z,20.10
2023-05-18T09:44:12.734Z,19.60
2023-05-18T09:46:41.435Z,18.30
2023-05-18T09:49:09.662Z,17.80
2023-05-18T09:51:40.155Z,17.60
2023-05-18T09:54:08.652Z,17.80
2023-05-18T09:56:37.321Z,17.50
2023-05-18T09:59:15.087Z,17.40
2023-05-18T10:02:02.295Z,16.70
2023-05-18T10:04:38.899Z,16.70
2023-05-18T10:07:13.726Z,17.40
2023-05-18T10:09:42.177Z,17.00
2023-05-18T10:12:17.125Z,16.60
2023-05-18T10:14:45.259Z,16.40
2023-05-18T10:17:15.756Z,17.00
2023-05-18T10:19:44.680Z,16.70
2023-05-18T10:22:12.822Z,17.30
2023-05-18T10:24:42.340Z,18.80
2023-05-18T10:27:14.440Z,19.70
2023-05-18T10:29:42.225Z,19.60
2023-05-18T10:32:14.597Z,19.30
2023-05-18T10:34:43.527Z,19.00
2023-05-18T10:37:12.145Z,18.60
2023-05-18T10:39:41.171Z,17.60
2023-05-18T10:42:10.498Z,17.10
2023-05-18T10:44:39.886Z,16.60
2023-05-18T10:47:09.326Z,16.50
2023-05-18T10:49:37.191Z,17.10
2023-05-18T10:52:04.128Z,16.70
2023-05-18T10:54:31.221Z,16.10
2023-05-18T10:56:58.178Z,16.00
2023-05-18T10:59:25.033Z,16.00
2023-05-18T11:01:53.715Z,16.20
2023-05-18T11:04:27.342Z,16.50
2023-05-18T11:29:35.862Z,16.60
2023-05-18T11:32:04.805Z,17.00
2023-05-18T11:34:39.447Z,17.20
2023-05-18T11:37:10.092Z,17.90
2023-05-18T11:39:44.931Z,18.50
2023-05-18T11:42:18.860Z,18.50
2023-05-18T11:44:52.708Z,18.80
2023-05-18T11:47:20.115Z,19.00
2023-05-18T11:49:52.000Z,18.50
2023-05-18T11:52:20.667Z,18.30
2023-05-18T11:54:54.812Z,18.50
2023-05-18T11:57:26.456Z,18.10
2023-05-18T11:59:58.648Z,18.30
2023-05-18T12:02:35.037Z,19.40
2023-05-18T12:05:08.909Z,20.10
2023-05-18T12:07:36.751Z,20.10
2023-05-18T12:10:09.090Z,20.00
2023-05-18T12:12:36.256Z,20.00
2023-05-18T12:15:05.458Z,20.10
2023-05-18T12:17:42.809Z,19.80
2023-05-18T12:20:12.104Z,19.10
2023-05-18T12:22:40.844Z,19.70
2023-05-18T12:25:08.698Z,20.40
2023-05-18T12:27:43.840Z,20.80
2023-05-18T12:30:12.286Z,20.00
2023-05-18T12:32:39.689Z,19.10
2023-05-18T12:35:08.792Z,18.50
2023-05-18T12:37:46.379Z,18.30
2023-05-18T12:40:20.191Z,19.00
2023-05-18T12:42:55.277Z,19.40
2023-05-18T12:45:25.682Z,19.30
2023-05-18T12:47:54.783Z,19.10
2023-05-18T12:50:28.427Z,18.80
2023-05-18T12:52:59.077Z,18.10
2023-05-18T12:55:26.510Z,18.10
2023-05-18T12:58:04.449Z,18.40
2023-05-18T13:00:36.182Z,18.20
2023-05-18T13:03:15.157Z,17.90
2023-05-18T13:05:45.168Z,17.50
2023-05-18T13:08:18.193Z,17.70
2023-05-18T13:10:45.636Z,17.60
2023-05-18T13:13:16.307Z,17.70
2023-05-18T13:15:43.545Z,17.80
2023-05-18T13:18:12.379Z,17.70
2023-05-18T13:20:51.203Z,17.50
2023-05-18T13:23:23.457Z,17.40
2023-05-18T13:25:50.758Z,17.10
2023-05-18T13:28:19.798Z,17.10
2023-05-18T13:30:48.903Z,17.10
2023-05-18T13:33:19.992Z,17.00
2023-05-18T13:35:48.499Z,17.00
2023-05-18T13:38:15.787Z,17.00
2023-05-18T13:40:43.085Z,16.90
2023-05-18T13:43:12.058Z,17.10
2023-05-18T13:45:41.149Z,17.70
2023-05-18T13:48:10.736Z,18.10
2023-05-18T13:50:39.285Z,17.90
2023-05-18T13:53:06.644Z,17.20
2023-05-18T13:55:33.993Z,16.70
2023-05-18T13:58:00.897Z,16.60
2023-05-18T14:00:28.060Z,17.00
2023-05-18T14:02:55.183Z,17.20
2023-05-18T14:05:22.376Z,17.30
2023-05-18T14:07:50.233Z,17.20
2023-05-18T14:10:17.045Z,17.30
2023-05-18T14:12:44.598Z,17.30
2023-05-18T14:15:13.860Z,17.50
2023-05-18T14:17:44.579Z,17.40
2023-05-18T14:20:12.598Z,17.10
2023-05-18T14:22:39.987Z,17.10
2023-05-18T14:25:07.074Z,17.00
2023-05-18T14:27:34.137Z,17.00
2023-05-18T14:30:01.389Z,17.10
2023-05-18T14:32:28.271Z,17.00
2023-05-18T14:34:57.771Z,16.90
2023-05-18T14:37:24.820Z,16.90
2023-05-18T14:39:51.520Z,16.90
2023-05-18T14:42:18.415Z,16.80
2023-05-18T14:44:45.298Z,16.80
2023-05-18T14:47:12.103Z,16.80
2023-05-18T14:49:38.919Z,16.60
2023-05-18T14:52:06.129Z,16.90
2023-05-18T14:54:33.080Z,16.90
2023-05-18T14:57:01.226Z,17.00
2023-05-18T14:59:28.113Z,17.10
2023-05-18T15:01:55.025Z,17.00
2023-05-18T15:04:22.156Z,17.10
2023-05-18T15:06:49.756Z,17.10
2023-05-18T15:09:17.351Z,17.30
2023-05-18T15:11:44.302Z,17.10
2023-05-18T15:14:11.353Z,16.70
2023-05-18T15:16:38.779Z,16.50
2023-05-18T15:19:06.062Z,16.60
2023-05-18T15:21:33.087Z,16.70
2023-05-18T15:23:59.989Z,16.90
2023-05-18T15:26:27.556Z,16.90
2023-05-18T15:28:54.603Z,16.90
2023-05-18T15:31:21.554Z,16.60
2023-05-18T15:33:48.306Z,16.40
2023-05-18T15:36:15.146Z,16.30
2023-05-18T15:38:41.951Z,16.10
2023-05-18T15:41:08.799Z,15.80
2023-05-18T15:43:36.747Z,16.00
2023-05-18T15:46:04.268Z,16.00
2023-05-18T15:48:31.034Z,15.90
2023-05-18T15:50:57.796Z,15.90
2023-05-18T15:53:24.655Z,15.80
2023-05-18T15:55:56.630Z,15.70
2023-05-18T15:58:26.410Z,15.80
2023-05-18T16:00:53.608Z,15.70
2023-05-18T16:03:20.534Z,15.50
2023-05-18T16:05:47.293Z,15.40
2023-05-18T16:08:14.085Z,15.40
2023-05-18T16:10:41.427Z,15.40
2023-05-18T16:13:08.156Z,15.30
2023-05-18T16:15:35.619Z,15.30
2023-05-18T16:18:02.914Z,15.30
2023-05-18T16:20:30.592Z,15.30
2023-05-18T16:22:57.804Z,15.20
2023-05-18T16:25:24.868Z,15.20
2023-05-18T16:27:52.236Z,15.20
2023-05-18T16:30:18.979Z,15.20
2023-05-18T16:32:45.759Z,15.20
2023-05-18T16:35:12.587Z,15.20
2023-05-18T16:37:39.466Z,15.20
2023-05-18T16:40:08.267Z,15.10
2023-05-18T16:42:35.488Z,15.20
2023-05-18T16:45:02.566Z,15.10
2023-05-18T16:47:32.533Z,15.10
2023-05-18T16:50:00.032Z,15.10
2023-05-18T16:52:26.905Z,15.10
2023-05-18T16:54:53.862Z,15.00
2023-05-18T16:57:21.155Z,15.10
2023-05-18T16:59:51.519Z,14.90
2023-05-18T17:02:18.898Z,15.00
2023-05-18T17:05:17.172Z,15.00
2023-05-18T17:07:43.928Z,15.00
2023-05-18T17:10:11.141Z,14.90
2023-05-18T17:12:38.454Z,14.80
2023-05-18T17:15:05.773Z,14.80
2023-05-18T17:17:32.554Z,14.80
2023-05-18T17:19:59.461Z,14.80
2023-05-18T17:22:26.243Z,14.60
2023-05-18T17:24:53.185Z,14.60
2023-05-18T17:27:19.890Z,14.50
2023-05-18T17:29:46.600Z,14.50
2023-05-18T17:32:13.356Z,14.50
2023-05-18T17:34:40.520Z,14.50
2023-05-18T17:37:07.311Z,14.50
2023-05-18T17:39:34.135Z,14.50
2023-05-18T17:42:01.685Z,14.50
2023-05-18T17:44:30.953Z,14.50
2023-05-18T17:46:58.468Z,14.40
2023-05-18T17:49:25.276Z,14.40
2023-05-18T17:51:52.474Z,14.40
2023-05-18T17:54:19.287Z,14.40
2023-05-18T17:56:46.594Z,14.40
2023-05-18T17:59:13.566Z,14.40
2023-05-18T18:01:40.569Z,14.40
2023-05-18T18:04:07.481Z,14.40
2023-05-18T18:06:35.495Z,14.30
2023-05-18T18:09:04.551Z,14.30
2023-05-18T18:11:31.459Z,14.20
2023-05-18T18:13:58.392Z,14.10
2023-05-18T18:16:25.462Z,14.00
2023-05-18T18:18:52.355Z,14.00
2023-05-18T18:21:19.145Z,13.90
2023-05-18T18:23:45.975Z,13.80
2023-05-18T18:26:12.730Z,13.80
2023-05-18T18:28:40.766Z,13.70
2023-05-18T18:31:07.545Z,13.60
2023-05-18T18:33:34.497Z,13.50
2023-05-18T18:36:02.300Z,13.50
2023-05-18T18:38:29.313Z,13.50
2023-05-18T18:41:04.029Z,13.50
2023-05-18T18:43:30.819Z,13.40
2023-05-18T18:45:57.864Z,13.30
2023-05-18T18:48:25.415Z,13.30
2023-05-18T18:50:52.882Z,13.20
2023-05-18T18:53:25.619Z,13.20
2023-05-18T18:56:40.908Z,13.20
2023-05-18T19:02:17.910Z,13.10
2023-05-18T19:04:44.800Z,13.00
2023-05-18T19:07:11.616Z,12.90
2023-05-18T19:09:38.436Z,12.90
2023-05-18T19:12:05.601Z,12.80
2023-05-18T19:14:32.282Z,12.80
2023-05-18T19:16:58.981Z,12.70
2023-05-18T19:19:25.882Z,12.70
2023-05-18T19:21:52.699Z,12.70
2023-05-18T19:24:19.385Z,12.60
2023-05-18T19:26:46.142Z,12.60
2023-05-18T19:29:14.314Z,12.60
2023-05-18T19:31:41.345Z,12.50
2023-05-18T19:34:08.245Z,12.40
2023-05-18T19:36:35.767Z,12.30
2023-05-18T19:39:06.992Z,12.30
2023-05-18T19:41:33.759Z,12.20
2023-05-18T19:44:03.210Z,12.20
2023-05-18T19:46:30.188Z,12.20
2023-05-18T19:49:00.287Z,12.10
2023-05-18T19:51:33.747Z,12.00
2023-05-18T19:54:03.541Z,11.90
2023-05-18T19:56:38.106Z,11.80
2023-05-18T19:59:05.551Z,11.80
2023-05-18T20:01:38.390Z,11.70
2023-05-18T20:04:05.500Z,11.60
2023-05-18T20:06:32.444Z,11.60
2023-05-18T20:09:02.144Z,11.50
2023-05-18T20:11:29.028Z,11.50
2023-05-18T20:13:57.997Z,11.40
2023-05-18T20:16:26.474Z,11.40
2023-05-18T20:18:59.874Z,11.30
2023-05-18T20:21:27.218Z,11.30
2023-05-18T20:23:54.057Z,11.30
2023-05-18T20:26:22.594Z,11.20
2023-05-18T20:28:49.494Z,11.20
2023-05-18T20:31:16.385Z,11.20
2023-05-18T20:33:44.520Z,11.10
2023-05-18T20:36:12.017Z,11.00
2023-05-18T20:38:40.778Z,10.90
2023-05-18T20:41:10.391Z,10.90
2023-05-18T20:43:39.894Z,10.80
2023-05-18T20:46:07.961Z,10.70
2023-05-18T20:48:37.975Z,10.70
2023-05-18T20:51:04.757Z,10.70
2023-05-18T20:53:31.453Z,10.70
2023-05-18T20:56:01.104Z,10.60
2023-05-18T20:58:27.851Z,10.60
2023-05-18T21:00:55.484Z,10.60
2023-05-18T21:03:22.359Z,10.60
2023-05-18T21:05:51.657Z,10.50
2023-05-18T21:08:18.456Z,10.50
2023-05-18T21:10:45.493Z,10.50
2023-05-18T21:13:12.244Z,10.40
2023-05-18T21:15:39.000Z,10.40
2023-05-18T21:18:06.110Z,10.30
2023-05-18T21:20:33.083Z,10.30
2023-05-18T21:22:59.887Z,10.30
2023-05-18T21:25:26.602Z,10.30
2023-05-18T21:27:53.353Z,10.30
2023-05-18T21:30:20.110Z,10.30
2023-05-18T21:32:48.137Z,10.30
2023-05-18T21:35:15.534Z,10.20
2023-05-18T21:37:42.329Z,10.20
2023-05-18T21:40:09.737Z,10.20
2023-05-18T21:42:38.102Z,10.20
2023-05-18T21:45:05.251Z,10.20
2023-05-18T21:47:31.966Z,10.20
2023-05-18T21:49:58.690Z,10.20
2023-05-18T21:52:25.391Z,10.20
2023-05-18T21:54:52.079Z,10.20
2023-05-18T21:57:18.977Z,10.20
2023-05-18T21:59:45.841Z,10.30
2023-05-18T22:02:12.535Z,10.30
2023-05-18T22:04:39.347Z,10.20
2023-05-18T22:07:06.093Z,10.30
2023-05-18T22:09:32.808Z,10.30
2023-05-18T22:11:59.543Z,10.30
2023-05-18T22:14:26.329Z,10.30
2023-05-18T22:16:53.055Z,10.30
2023-05-18T22:19:19.987Z,10.30
2023-05-18T22:21:46.897Z,10.30
2023-05-18T22:24:13.627Z,10.30
2023-05-18T22:26:42.731Z,10.30
